TFM - Tactical Decision Aid
ID: Runway Winds: CIG/VIS Threshold:

KCVG - Cincinnati Intl, KY, US

Updated at: 0210 UTC 12 May 2021
Latest TAF at: 2320 UTC 11 May 2021

TAF Board

Time0152Z 12/03Z 12/04Z 12/05Z 12/06Z 12/07Z 12/08Z 12/09Z 12/10Z 12/11Z 12/12Z 12/13Z 12/14Z 12/15Z>>
Type OBS PRVL PRVL PRVL PRVL PRVL PRVL PRVL PRVL PRVL PRVL PRVL PRVL PRVL
VIS 10 >6 >6 >6 >6 >6 >6 >6 >6 >6 >6 >6 >6 >6
CIG 160 150 150 150 150 -- -- -- -- -- -- -- -- --
Cover BKN BKN BKN BKN BKN SCT SCT SCT SCT SCT SCT SCT SCT SCT
FltCat VFR VFR VFR VFR VFR VFR VFR VFR VFR VFR VFR VFR VFR VFR
WX -- -- -- -- -- -- -- -- -- -- -- -- -- --
WDir 10 10 10 10 10 30 30 30 30 30 30 30 30 30
WSpd 7 6 6 6 6 6 6 6 6 6 6 6 6 6
WGst -- -- -- -- -- -- -- -- -- -- -- -- -- --

TDA Impact Legend

  None Marginal Slight Moderate High
Visibility (sm) >5 3≤X≤5 1≤X<3 0.5≤X<1 <0.5
Ceiling (100 ft) >30 10≤X≤30 4≤X<10 2≤X<4 <2
Wind Speed (kt) <15 15≤X<25 25≤X<30 ≥30
Wind Gust (kt) <15 15≤X<25 25≤X<35 ≥35
Weather No Wx Reported VCTS -TS,-FZRA TS,FZRA +TS,+FZRA
TAF
KCVG 112320Z 1200/1306 01006KT P6SM FEW070 BKN150
  FM120700 03006KT P6SM SCT150
  FM121800 03008KT P6SM FEW060
  FM130000 03006KT P6SM SKC


METAR
KCVG 120152Z 01007KT 10SM BKN160 BKN250 11/M01 A3031 RMK AO2 SLP262 T01061006
KCVG 120052Z 36008KT 10SM BKN150 BKN250 11/M01 A3028 RMK AO2 SLP252 T01111006
KCVG 112352Z 01010KT 10SM FEW065 BKN140 OVC250 12/M01 A3026 RMK AO2 SLP247 VIRGA OHD-SE-SW T01221006 10161 20122 53011
KCVG 112252Z 02010KT 10SM FEW065 BKN150 OVC300 13/M01 A3024 RMK AO2 SLP238 T01331006

Radar Display
Forecast Discussion